Time;durP1;ratioP1;P1;durP2;ratioP2;P2;SDS_P1;SDS_P2;PMS_P1;PMS_P2;Temp;Humidity;BMP_temperature;BMP_pressure;BME280_temperature;BME280_humidity;BME280_pressure;Samples;Min_cycle;Max_cycle;Signal;HPM_P1;HPM_P2
2023/02/21 02:16:02;;;;;;;;;;;7.50;99.90;;;;;;5086347;28;19930;-55
2023/02/21 02:18:44;;;;;;;;;;;7.50;99.90;;;;;;5092175;28;19928;-56
2023/02/21 02:21:29;;;;;;;;;;;7.50;99.90;;;;;;5086496;28;20442;-59
2023/02/21 02:24:14;;;;;;;;;;;7.50;99.90;;;;;;5072581;28;19929;-58
2023/02/21 02:27:13;;;;;;;;;;;7.60;99.90;;;;;;5078306;28;19951;-57
2023/02/21 02:29:57;;;;;;;;;;;7.60;99.90;;;;;;5082808;28;19932;-57
2023/02/21 02:32:50;;;;;;;;;;;7.60;99.90;;;;;;5080916;28;19970;-58
2023/02/21 02:35:20;;;;;;;;;;;7.60;99.90;;;;;;5072598;28;19928;-58
2023/02/21 02:37:48;;;;;;;;;;;7.60;99.90;;;;;;5083310;28;20280;-58
2023/02/21 02:40:19;;;;;;;;;;;7.60;99.90;;;;;;5081406;28;20571;-57
2023/02/21 02:42:54;;;;;;;;;;;7.60;99.90;;;;;;5081429;28;19925;-58
2023/02/21 02:45:25;;;;;;;;;;;7.50;99.90;;;;;;5081433;28;19925;-58
2023/02/21 02:47:54;;;;;;;;;;;7.50;99.90;;;;;;5089423;28;19924;-59
2023/02/21 02:50:24;;;;;;;;;;;7.40;99.90;;;;;;5085178;28;19924;-55
2023/02/21 02:52:51;;;;;;;;;;;7.30;99.90;;;;;;5079818;28;19928;-58
2023/02/21 02:55:23;;;;;;;;;;;7.40;99.90;;;;;;5083593;28;20365;-58
2023/02/21 02:57:51;;;;;;;;;;;7.50;99.90;;;;;;5082531;28;19947;-58
2023/02/21 03:00:17;;;;;;;;;;;7.50;99.90;;;;;;5087521;28;19925;-58
2023/02/21 03:02:56;;;;;;;;;;;7.40;99.90;;;;;;5081277;28;19924;-56
2023/02/21 03:05:32;;;;;;;;;;;7.40;99.90;;;;;;5083689;28;20391;-58
2023/02/21 03:08:02;;;;;;;;;;;7.50;99.90;;;;;;5079555;28;19928;-59
2023/02/21 03:10:34;;;;;;;;;;;7.60;99.90;;;;;;5083397;28;19979;-59
2023/02/21 03:13:04;;;;;;;;;;;7.70;99.90;;;;;;5084601;28;19924;-59
2023/02/21 03:15:34;;;;;;;;;;;7.60;99.90;;;;;;5083377;28;19978;-58
2023/02/21 03:18:03;;;;;;;;;;;7.70;99.90;;;;;;5084507;28;19970;-59
2023/02/21 03:20:32;;;;;;;;;;;7.60;99.90;;;;;;5085815;28;19978;-58
2023/02/21 03:23:00;;;;;;;;;;;7.60;99.90;;;;;;5083410;28;19928;-58
2023/02/21 03:25:27;;;;;;;;;;;7.60;99.90;;;;;;5082675;28;19950;-57
2023/02/21 03:27:55;;;;;;;;;;;7.70;99.90;;;;;;5083251;28;19924;-58
2023/02/21 03:30:21;;;;;;;;;;;7.70;99.90;;;;;;5082030;28;19948;-58
2023/02/21 03:32:50;;;;;;;;;;;7.70;99.90;;;;;;5083263;28;19928;-58
2023/02/21 03:35:16;;;;;;;;;;;7.40;99.90;;;;;;5080740;28;20011;-58
2023/02/21 03:37:45;;;;;;;;;;;7.50;99.90;;;;;;5080603;28;20090;-56
2023/02/21 03:40:13;;;;;;;;;;;7.40;99.90;;;;;;5083434;28;19947;-56
2023/02/21 03:42:39;;;;;;;;;;;7.50;99.90;;;;;;5083872;28;19950;-56
2023/02/21 03:45:06;;;;;;;;;;;7.50;99.90;;;;;;5082873;28;19924;-55
2023/02/21 03:47:32;;;;;;;;;;;7.50;99.90;;;;;;5083768;28;19924;-57
2023/02/21 03:49:59;;;;;;;;;;;7.60;99.90;;;;;;5083255;28;19932;-57
2023/02/21 03:52:26;;;;;;;;;;;7.60;99.90;;;;;;5083508;28;19931;-57
2023/02/21 03:54:54;;;;;;;;;;;7.60;99.90;;;;;;5088412;28;19924;-57
2023/02/21 03:57:20;;;;;;;;;;;7.60;99.90;;;;;;5084179;28;19924;-58
2023/02/21 03:59:47;;;;;;;;;;;7.50;99.90;;;;;;5084379;28;19974;-59
2023/02/21 04:02:13;;;;;;;;;;;7.50;99.90;;;;;;5088032;28;19974;-57
2023/02/21 04:04:40;;;;;;;;;;;7.50;99.90;;;;;;5087622;28;19928;-58
2023/02/21 04:07:07;;;;;;;;;;;7.50;99.90;;;;;;5088621;28;19928;-59
2023/02/21 04:09:33;;;;;;;;;;;7.50;99.90;;;;;;5087740;28;20413;-59
2023/02/21 04:12:01;;;;;;;;;;;7.40;99.90;;;;;;5084196;28;19928;-57
2023/02/21 04:14:28;;;;;;;;;;;7.60;99.90;;;;;;5086406;28;20321;-59
2023/02/21 04:16:54;;;;;;;;;;;7.70;99.90;;;;;;5086067;28;19932;-58
2023/02/21 04:19:21;;;;;;;;;;;7.70;99.90;;;;;;5086853;28;19924;-58
2023/02/21 04:21:47;;;;;;;;;;;7.60;99.90;;;;;;5088017;28;19978;-56
2023/02/21 04:24:14;;;;;;;;;;;7.60;99.90;;;;;;5088994;28;19948;-57
2023/02/21 04:26:40;;;;;;;;;;;7.60;99.90;;;;;;5090901;28;19928;-59
2023/02/21 04:29:08;;;;;;;;;;;7.60;99.90;;;;;;5090110;28;19928;-57
2023/02/21 04:31:35;;;;;;;;;;;7.50;99.90;;;;;;5087510;28;19981;-57
2023/02/21 04:34:01;;;;;;;;;;;7.60;99.90;;;;;;5087534;28;20345;-58
2023/02/21 04:36:28;;;;;;;;;;;7.70;99.90;;;;;;5086655;28;20291;-58
2023/02/21 04:38:55;;;;;;;;;;;7.70;99.90;;;;;;5087745;28;19954;-57
2023/02/21 04:41:21;;;;;;;;;;;7.70;99.90;;;;;;5085895;28;19924;-57
2023/02/21 04:43:48;;;;;;;;;;;7.80;99.90;;;;;;5087037;28;19981;-56
2023/02/21 04:46:17;;;;;;;;;;;7.80;99.90;;;;;;5086149;28;19944;-58
2023/02/21 04:48:43;;;;;;;;;;;7.90;99.90;;;;;;5087315;28;19931;-58
2023/02/21 04:51:10;;;;;;;;;;;7.90;99.90;;;;;;5086810;28;19947;-55
2023/02/21 04:53:36;;;;;;;;;;;7.80;99.90;;;;;;5085897;28;19932;-57
2023/02/21 04:56:03;;;;;;;;;;;7.80;99.90;;;;;;5082710;28;19947;-57
2023/02/21 04:58:30;;;;;;;;;;;7.80;99.90;;;;;;5086879;28;20321;-55
2023/02/21 05:00:56;;;;;;;;;;;7.80;99.90;;;;;;5086403;28;19924;-53
2023/02/21 05:03:24;;;;;;;;;;;7.80;99.90;;;;;;5085136;28;19924;-57
2023/02/21 05:05:50;;;;;;;;;;;7.90;99.90;;;;;;5086065;28;19950;-54
2023/02/21 05:08:17;;;;;;;;;;;7.80;99.90;;;;;;5084235;28;19924;-60
2023/02/21 05:10:45;;;;;;;;;;;7.80;99.90;;;;;;5083821;28;19975;-60
2023/02/21 05:13:11;;;;;;;;;;;7.90;99.90;;;;;;5085770;28;19931;-60
2023/02/21 05:15:39;;;;;;;;;;;7.80;99.90;;;;;;5088520;28;19924;-61
2023/02/21 05:18:05;;;;;;;;;;;7.80;99.90;;;;;;5088754;28;19924;-61
2023/02/21 05:20:33;;;;;;;;;;;7.80;99.90;;;;;;5085290;28;19928;-61
2023/02/21 05:23:00;;;;;;;;;;;7.60;99.90;;;;;;5085021;28;19970;-61
2023/02/21 05:25:26;;;;;;;;;;;7.70;99.90;;;;;;5085828;28;19928;-61
2023/02/21 05:27:53;;;;;;;;;;;7.70;99.90;;;;;;5086521;28;19932;-61
2023/02/21 05:30:21;;;;;;;;;;;7.60;99.90;;;;;;5086809;28;19928;-61
2023/02/21 05:32:47;;;;;;;;;;;7.70;99.90;;;;;;5086923;28;20026;-61
2023/02/21 05:35:14;;;;;;;;;;;7.70;99.90;;;;;;5083007;28;19924;-61
2023/02/21 05:37:43;;;;;;;;;;;7.60;99.90;;;;;;5082207;28;20456;-61
2023/02/21 05:40:10;;;;;;;;;;;7.70;99.90;;;;;;5083204;28;19950;-61
2023/02/21 05:42:37;;;;;;;;;;;7.70;99.90;;;;;;5085553;28;20310;-61
2023/02/21 05:45:05;;;;;;;;;;;7.70;99.90;;;;;;5084199;28;19924;-61
2023/02/21 05:47:33;;;;;;;;;;;7.70;99.90;;;;;;5086020;28;19985;-61
2023/02/21 05:49:59;;;;;;;;;;;7.70;99.90;;;;;;5085338;28;19924;-61
2023/02/21 05:52:26;;;;;;;;;;;7.70;99.90;;;;;;5084468;28;19978;-61
2023/02/21 05:54:54;;;;;;;;;;;7.80;99.90;;;;;;5084868;28;19974;-61
2023/02/21 05:57:20;;;;;;;;;;;7.60;99.90;;;;;;5084268;28;20330;-61
2023/02/21 05:59:47;;;;;;;;;;;7.60;99.90;;;;;;5087381;28;19970;-61
2023/02/21 06:02:13;;;;;;;;;;;7.60;99.90;;;;;;5084374;28;20394;-61
2023/02/21 06:04:40;;;;;;;;;;;7.60;99.90;;;;;;5083928;28;19924;-61
2023/02/21 06:07:07;;;;;;;;;;;7.70;99.90;;;;;;5080241;28;19990;-61
2023/02/21 06:09:33;;;;;;;;;;;7.70;99.90;;;;;;5081673;28;19932;-61
2023/02/21 06:12:01;;;;;;;;;;;7.70;99.90;;;;;;5088362;28;20444;-60
2023/02/21 06:14:27;;;;;;;;;;;7.70;99.90;;;;;;5086060;28;19924;-61
2023/02/21 06:16:54;;;;;;;;;;;7.70;99.90;;;;;;5081616;28;19924;-61
2023/02/21 06:19:21;;;;;;;;;;;7.60;99.90;;;;;;5087922;28;19924;-60
2023/02/21 06:21:47;;;;;;;;;;;7.50;99.90;;;;;;5082953;28;19993;-61
2023/02/21 06:24:14;;;;;;;;;;;7.60;99.90;;;;;;5084559;28;20053;-61
2023/02/21 06:26:41;;;;;;;;;;;7.60;99.90;;;;;;5083655;28;19993;-61
2023/02/21 06:29:10;;;;;;;;;;;7.60;99.90;;;;;;5084020;28;20010;-61
2023/02/21 06:31:36;;;;;;;;;;;7.70;99.90;;;;;;5073078;28;19982;-60
2023/02/21 06:34:03;;;;;;;;;;;7.60;99.90;;;;;;5072599;28;19932;-59
2023/02/21 06:36:30;;;;;;;;;;;7.50;99.90;;;;;;5072802;28;19928;-61
2023/02/21 06:38:57;;;;;;;;;;;7.40;99.90;;;;;;5072556;28;20341;-61
2023/02/21 06:41:24;;;;;;;;;;;7.30;99.90;;;;;;5083812;28;19969;-60
2023/02/21 06:43:51;;;;;;;;;;;7.40;99.90;;;;;;5072538;28;19924;-60
2023/02/21 06:46:20;;;;;;;;;;;7.40;99.90;;;;;;5072224;28;19929;-60
2023/02/21 06:48:46;;;;;;;;;;;7.30;99.90;;;;;;5086845;28;19932;-61
2023/02/21 06:51:13;;;;;;;;;;;7.20;99.90;;;;;;5084595;28;19970;-61
2023/02/21 06:53:39;;;;;;;;;;;7.20;99.90;;;;;;5081346;28;19925;-60
2023/02/21 06:56:06;;;;;;;;;;;7.10;99.90;;;;;;5083343;28;19928;-60
2023/02/21 06:58:33;;;;;;;;;;;7.10;99.90;;;;;;5082884;28;19924;-61
2023/02/21 07:00:59;;;;;;;;;;;7.20;99.90;;;;;;5081214;28;19932;-60
2023/02/21 07:03:27;;;;;;;;;;;7.20;99.90;;;;;;5082280;28;19974;-61
2023/02/21 07:05:54;;;;;;;;;;;7.30;99.90;;;;;;5083393;28;19924;-61
2023/02/21 07:08:21;;;;;;;;;;;7.30;99.90;;;;;;5081447;28;19925;-61
2023/02/21 07:10:47;;;;;;;;;;;7.40;99.90;;;;;;5081781;28;20298;-61
2023/02/21 07:13:14;;;;;;;;;;;7.40;99.90;;;;;;5083816;28;19924;-61
2023/02/21 07:15:40;;;;;;;;;;;7.50;99.90;;;;;;5081756;28;19924;-61
2023/02/21 07:18:07;;;;;;;;;;;7.50;99.90;;;;;;5085626;28;19932;-61
2023/02/21 07:20:35;;;;;;;;;;;7.40;99.90;;;;;;5083187;28;19924;-60
2023/02/21 07:23:01;;;;;;;;;;;7.40;99.90;;;;;;5082831;28;19928;-62
2023/02/21 07:25:28;;;;;;;;;;;7.40;99.90;;;;;;5080782;28;19924;-61
2023/02/21 07:27:55;;;;;;;;;;;7.30;99.90;;;;;;5084008;28;19924;-61
2023/02/21 07:30:21;;;;;;;;;;;7.40;99.90;;;;;;5087280;28;19932;-61
2023/02/21 07:32:48;;;;;;;;;;;7.50;99.90;;;;;;5085052;28;19925;-62
2023/02/21 07:35:15;;;;;;;;;;;7.50;99.90;;;;;;5085675;28;20387;-61
2023/02/21 07:37:42;;;;;;;;;;;7.50;99.90;;;;;;5086964;28;19924;-61
2023/02/21 07:40:09;;;;;;;;;;;7.40;99.90;;;;;;5085839;28;19970;-60
2023/02/21 07:42:36;;;;;;;;;;;7.40;99.90;;;;;;5084416;28;19925;-60
2023/02/21 07:45:02;;;;;;;;;;;7.40;99.90;;;;;;5086738;28;19928;-61
2023/02/21 07:47:29;;;;;;;;;;;7.40;99.90;;;;;;5087902;28;19950;-61
2023/02/21 07:49:55;;;;;;;;;;;7.50;99.90;;;;;;5086581;28;19924;-62
2023/02/21 07:52:22;;;;;;;;;;;7.50;99.90;;;;;;5086003;28;19924;-61
2023/02/21 07:54:50;;;;;;;;;;;7.50;99.90;;;;;;5086816;28;19950;-60
2023/02/21 07:57:16;;;;;;;;;;;7.60;99.90;;;;;;5075126;28;19929;-61
2023/02/21 07:59:43;;;;;;;;;;;7.60;99.90;;;;;;5075497;28;19929;-61
2023/02/21 08:02:10;;;;;;;;;;;7.60;99.90;;;;;;5075449;28;19925;-60
2023/02/21 08:04:37;;;;;;;;;;;7.50;99.90;;;;;;5075482;28;19932;-60
2023/02/21 08:07:04;;;;;;;;;;;7.60;99.90;;;;;;5075202;28;19925;-61
2023/02/21 08:09:32;;;;;;;;;;;7.60;99.90;;;;;;5084713;28;19998;-61
2023/02/21 08:12:00;;;;;;;;;;;7.60;99.90;;;;;;5084918;28;19931;-61
2023/02/21 08:14:26;;;;;;;;;;;7.60;99.90;;;;;;5081557;28;19981;-62
2023/02/21 08:16:53;;;;;;;;;;;7.60;99.90;;;;;;5085225;28;19950;-62
2023/02/21 08:19:19;;;;;;;;;;;7.50;99.90;;;;;;5092256;28;19924;-62
2023/02/21 08:21:46;;;;;;;;;;;7.50;99.90;;;;;;5086412;28;20352;-61
2023/02/21 08:24:13;;;;;;;;;;;7.60;99.90;;;;;;5082772;28;19928;-62
2023/02/21 08:26:40;;;;;;;;;;;7.50;99.90;;;;;;5086343;28;19924;-62
2023/02/21 08:29:08;;;;;;;;;;;7.50;99.90;;;;;;5085648;28;20371;-62
2023/02/21 08:31:35;;;;;;;;;;;7.50;99.90;;;;;;5084001;28;19978;-62
2023/02/21 08:34:01;;;;;;;;;;;7.60;99.90;;;;;;5085824;28;19924;-62
2023/02/21 08:36:30;;;;;;;;;;;7.70;99.90;;;;;;5086307;28;19973;-62
2023/02/21 08:38:57;;;;;;;;;;;7.80;99.90;;;;;;5080586;28;20337;-63
2023/02/21 08:41:24;;;;;;;;;;;7.70;99.90;;;;;;5080889;28;19928;-63
2023/02/21 08:43:51;;;;;;;;;;;7.60;99.90;;;;;;5074549;28;20011;-62
2023/02/21 08:46:18;;;;;;;;;;;7.60;99.90;;;;;;5074611;28;19924;-62
2023/02/21 08:48:45;;;;;;;;;;;7.60;99.90;;;;;;5087159;28;20337;-62
2023/02/21 08:51:13;;;;;;;;;;;7.70;99.90;;;;;;5086058;28;21211;-63
2023/02/21 08:53:40;;;;;;;;;;;7.70;99.90;;;;;;5083965;28;20372;-63
2023/02/21 08:56:06;;;;;;;;;;;7.80;99.90;;;;;;5086006;28;19932;-63
2023/02/21 08:58:33;;;;;;;;;;;7.70;99.90;;;;;;5084523;28;19924;-62
2023/02/21 09:00:59;;;;;;;;;;;7.80;99.90;;;;;;5083193;28;20441;-63
2023/02/21 09:03:27;;;;;;;;;;;7.70;99.90;;;;;;5085393;28;19924;-62
2023/02/21 09:05:54;;;;;;;;;;;7.60;99.90;;;;;;5084712;28;19950;-63
2023/02/21 09:08:23;;;;;;;;;;;7.70;99.90;;;;;;5082796;28;19924;-62
2023/02/21 09:10:49;;;;;;;;;;;7.60;99.90;;;;;;5087299;28;20261;-62
2023/02/21 09:13:16;;;;;;;;;;;7.60;99.90;;;;;;5083242;28;20341;-63
2023/02/21 09:15:42;;;;;;;;;;;7.50;99.90;;;;;;5085150;28;19928;-62
2023/02/21 09:18:10;;;;;;;;;;;7.50;99.90;;;;;;5086825;28;19924;-63
2023/02/21 09:20:41;;;;;;;;;;;7.50;99.90;;;;;;5087381;28;19981;-63
2023/02/21 09:23:07;;;;;;;;;;;7.40;99.90;;;;;;5085085;28;19935;-63
2023/02/21 09:25:34;;;;;;;;;;;7.50;99.90;;;;;;5083303;28;19931;-63
2023/02/21 09:28:00;;;;;;;;;;;7.50;99.90;;;;;;5084217;28;19977;-62
2023/02/21 09:30:28;;;;;;;;;;;7.40;99.90;;;;;;5085459;28;19928;-63
2023/02/21 09:32:55;;;;;;;;;;;7.40;99.90;;;;;;5083271;28;19924;-63
2023/02/21 09:35:21;;;;;;;;;;;7.50;99.90;;;;;;5083399;28;19924;-62
2023/02/21 09:37:50;;;;;;;;;;;7.60;99.90;;;;;;5085065;28;20337;-61
2023/02/21 09:40:21;;;;;;;;;;;7.70;99.90;;;;;;5083984;28;19928;-62
2023/02/21 09:42:49;;;;;;;;;;;7.70;99.90;;;;;;5082383;28;19951;-63
2023/02/21 09:45:18;;;;;;;;;;;7.60;99.90;;;;;;5083472;28;19950;-62
2023/02/21 09:47:49;;;;;;;;;;;7.60;99.90;;;;;;5087176;28;19950;-62
2023/02/21 09:50:16;;;;;;;;;;;7.70;99.90;;;;;;5086227;28;20697;-63
2023/02/21 09:52:42;;;;;;;;;;;7.70;99.90;;;;;;5082231;28;20386;-59
2023/02/21 09:55:14;;;;;;;;;;;7.70;99.90;;;;;;5084126;28;19924;-60
2023/02/21 09:57:40;;;;;;;;;;;7.50;99.90;;;;;;5084352;28;20447;-60
2023/02/21 10:00:15;;;;;;;;;;;7.60;99.90;;;;;;5082797;28;19933;-62
2023/02/21 10:02:48;;;;;;;;;;;7.70;99.90;;;;;;5081810;28;19964;-63
2023/02/21 10:05:21;;;;;;;;;;;7.90;99.90;;;;;;5083034;28;19928;-61
2023/02/21 10:07:52;;;;;;;;;;;8.00;99.90;;;;;;5082000;28;19928;-61
2023/02/21 10:10:23;;;;;;;;;;;8.10;99.90;;;;;;5082404;28;19947;-61
2023/02/21 10:12:53;;;;;;;;;;;8.00;99.90;;;;;;5083989;28;19977;-61
2023/02/21 10:15:25;;;;;;;;;;;7.90;99.90;;;;;;5082031;28;20382;-61
2023/02/21 10:17:55;;;;;;;;;;;7.90;99.90;;;;;;5084472;28;20511;-62
2023/02/21 10:20:25;;;;;;;;;;;7.90;99.90;;;;;;5084501;28;19951;-62
2023/02/21 10:22:52;;;;;;;;;;;8.00;99.90;;;;;;5083393;28;20356;-62
2023/02/21 10:25:24;;;;;;;;;;;8.00;99.90;;;;;;5081747;28;20445;-62
2023/02/21 10:27:51;;;;;;;;;;;8.10;99.90;;;;;;5082855;28;19928;-62
2023/02/21 10:30:20;;;;;;;;;;;8.00;99.90;;;;;;5084425;28;19977;-63
2023/02/21 10:32:46;;;;;;;;;;;8.10;99.90;;;;;;5082229;28;19928;-62
2023/02/21 10:35:13;;;;;;;;;;;8.20;99.90;;;;;;5081847;28;19928;-63
2023/02/21 10:37:41;;;;;;;;;;;8.20;99.90;;;;;;5081199;28;19933;-62
2023/02/21 10:40:19;;;;;;;;;;;8.00;99.90;;;;;;5082055;28;19925;-60
2023/02/21 10:42:50;;;;;;;;;;;8.00;99.90;;;;;;5082181;28;19970;-63
2023/02/21 10:45:18;;;;;;;;;;;8.00;99.90;;;;;;5081355;28;19925;-61
2023/02/21 10:47:49;;;;;;;;;;;8.00;99.90;;;;;;5083767;28;19924;-62
2023/02/21 10:50:15;;;;;;;;;;;7.90;99.90;;;;;;5084691;28;19928;-62
2023/02/21 10:52:47;;;;;;;;;;;7.90;99.90;;;;;;5084859;28;19929;-63
2023/02/21 10:55:20;;;;;;;;;;;8.00;99.90;;;;;;5081635;28;20023;-61
2023/02/21 10:57:51;;;;;;;;;;;8.00;99.90;;;;;;5082032;28;19927;-62
2023/02/21 11:00:23;;;;;;;;;;;7.80;99.90;;;;;;5083788;28;19981;-61
2023/02/21 11:02:54;;;;;;;;;;;7.90;99.90;;;;;;5081741;28;19931;-63
2023/02/21 11:05:22;;;;;;;;;;;7.80;99.90;;;;;;5081631;28;20320;-63
2023/02/21 11:07:56;;;;;;;;;;;7.80;99.90;;;;;;5081363;28;20011;-62
2023/02/21 11:10:27;;;;;;;;;;;7.60;99.90;;;;;;5072283;28;19970;-63
2023/02/21 11:13:14;;;;;;;;;;;7.80;99.90;;;;;;5071826;28;19924;-63
2023/02/21 11:15:40;;;;;;;;;;;7.90;99.90;;;;;;5072315;28;20290;-62
2023/02/21 11:18:13;;;;;;;;;;;7.80;99.90;;;;;;5079213;28;20325;-62
2023/02/21 11:20:39;;;;;;;;;;;7.90;99.90;;;;;;5087030;28;20340;-62
2023/02/21 11:23:18;;;;;;;;;;;7.80;99.90;;;;;;5082498;28;19928;-62
2023/02/21 11:25:45;;;;;;;;;;;8.00;99.90;;;;;;5072378;28;19931;-62
2023/02/21 11:28:19;;;;;;;;;;;8.10;99.90;;;;;;5072074;28;20087;-61
2023/02/21 11:30:49;;;;;;;;;;;8.20;99.90;;;;;;5081916;28;19925;-62
2023/02/21 11:33:18;;;;;;;;;;;8.20;99.90;;;;;;5080986;28;19925;-63
2023/02/21 11:35:46;;;;;;;;;;;8.50;99.90;;;;;;5081189;28;19924;-63
2023/02/21 11:38:28;;;;;;;;;;;8.70;99.90;;;;;;5080838;28;19929;-62
2023/02/21 11:40:54;;;;;;;;;;;8.90;99.90;;;;;;5072660;28;19925;-62
2023/02/21 11:43:24;;;;;;;;;;;8.90;99.90;;;;;;5072626;28;19924;-62
2023/02/21 11:46:03;;;;;;;;;;;9.00;99.90;;;;;;5072306;28;19985;-62
2023/02/21 11:48:35;;;;;;;;;;;9.00;99.90;;;;;;5084156;28;20007;-62
2023/02/21 11:51:06;;;;;;;;;;;9.20;99.90;;;;;;5084119;28;19969;-62
2023/02/21 11:53:36;;;;;;;;;;;9.20;99.90;;;;;;5083412;28;19960;-63
2023/02/21 11:56:06;;;;;;;;;;;9.40;99.90;;;;;;5083117;28;19931;-63
2023/02/21 11:58:36;;;;;;;;;;;9.40;99.90;;;;;;5082489;28;19924;-62
2023/02/21 12:01:05;;;;;;;;;;;9.20;99.90;;;;;;5080664;28;20334;-62
2023/02/21 12:03:38;;;;;;;;;;;9.20;99.90;;;;;;5080906;28;19928;-62
2023/02/21 12:06:10;;;;;;;;;;;8.90;99.90;;;;;;5080808;28;19925;-62
2023/02/21 12:08:39;;;;;;;;;;;8.90;99.90;;;;;;5080448;28;19924;-62
2023/02/21 12:11:26;;;;;;;;;;;9.00;99.90;;;;;;5082479;28;19928;-63
2023/02/21 12:13:58;;;;;;;;;;;8.90;99.90;;;;;;5069834;28;19929;-62
2023/02/21 12:16:30;;;;;;;;;;;8.70;99.90;;;;;;5075845;28;19924;-62
2023/02/21 12:19:04;;;;;;;;;;;8.70;99.90;;;;;;5089152;28;19986;-62
2023/02/21 12:21:42;;;;;;;;;;;8.80;99.90;;;;;;5083181;28;19924;-62
2023/02/21 12:24:17;;;;;;;;;;;8.70;99.90;;;;;;5086696;28;19966;-62
2023/02/21 12:26:48;;;;;;;;;;;8.90;99.90;;;;;;5086577;28;20353;-62
2023/02/21 12:29:24;;;;;;;;;;;8.80;99.90;;;;;;5084941;28;19970;-62
2023/02/21 12:31:57;;;;;;;;;;;8.80;99.90;;;;;;5083828;28;19978;-62
2023/02/21 12:34:31;;;;;;;;;;;8.70;99.90;;;;;;5083948;28;19986;-62
2023/02/21 12:37:05;;;;;;;;;;;8.80;99.90;;;;;;5074457;28;19928;-62
2023/02/21 12:39:45;;;;;;;;;;;9.00;99.90;;;;;;5074647;28;19932;-62
2023/02/21 12:42:19;;;;;;;;;;;9.10;99.90;;;;;;5074731;28;19929;-62
2023/02/21 12:44:54;;;;;;;;;;;9.20;99.90;;;;;;5074760;28;20554;-63
2023/02/21 12:47:23;;;;;;;;;;;9.30;99.90;;;;;;5085730;28;20348;-62
2023/02/21 12:49:52;;;;;;;;;;;9.20;99.90;;;;;;5084163;28;19985;-62
2023/02/21 12:52:21;;;;;;;;;;;9.30;99.90;;;;;;5085773;28;19973;-68
2023/02/21 12:54:50;;;;;;;;;;;9.40;99.90;;;;;;5091546;28;19932;-66
2023/02/21 12:57:19;;;;;;;;;;;9.40;99.90;;;;;;5093213;28;19925;-66
2023/02/21 12:59:50;;;;;;;;;;;9.60;99.90;;;;;;5089164;28;19924;-63
2023/02/21 13:02:20;;;;;;;;;;;9.70;99.90;;;;;;5086681;28;19951;-63
2023/02/21 13:04:52;;;;;;;;;;;9.60;99.90;;;;;;5090321;28;19930;-62
2023/02/21 13:07:25;;;;;;;;;;;9.60;99.90;;;;;;5088868;28;20345;-63
2023/02/21 13:09:56;;;;;;;;;;;9.50;99.90;;;;;;5082597;28;20462;-62
2023/02/21 13:12:26;;;;;;;;;;;9.60;99.90;;;;;;5083700;28;19928;-65
2023/02/21 13:14:55;;;;;;;;;;;9.60;99.90;;;;;;5078580;28;19963;-62
2023/02/21 13:17:24;;;;;;;;;;;9.70;99.90;;;;;;5087337;28;19924;-65
2023/02/21 13:19:53;;;;;;;;;;;9.70;99.90;;;;;;5082861;28;19931;-65
2023/02/21 13:22:23;;;;;;;;;;;9.70;99.90;;;;;;5086730;28;19928;-64
2023/02/21 13:24:53;;;;;;;;;;;9.80;99.90;;;;;;5081171;28;19928;-64
2023/02/21 13:27:41;;;;;;;;;;;9.70;99.90;;;;;;5083064;28;19934;-64
2023/02/21 13:30:12;;;;;;;;;;;9.70;99.90;;;;;;5084624;28;19928;-63
2023/02/21 13:32:40;;;;;;;;;;;9.60;99.90;;;;;;5075035;28;19924;-64
2023/02/21 13:35:09;;;;;;;;;;;9.70;99.90;;;;;;5090364;28;20537;-64
2023/02/21 13:37:43;;;;;;;;;;;9.70;99.90;;;;;;5082132;28;19931;-63
2023/02/21 13:40:20;;;;;;;;;;;9.50;99.90;;;;;;5085924;28;19925;-64
2023/02/21 13:42:46;;;;;;;;;;;9.70;99.90;;;;;;5083857;28;19931;-64
2023/02/21 13:45:16;;;;;;;;;;;9.70;99.90;;;;;;5081872;28;19933;-65
2023/02/21 13:48:01;;;;;;;;;;;9.60;99.90;;;;;;5083975;28;19932;-63
2023/02/21 13:50:48;;;;;;;;;;;9.50;99.90;;;;;;5089528;28;19928;-62
2023/02/21 13:53:16;;;;;;;;;;;9.60;99.90;;;;;;5084084;28;19924;-63
2023/02/21 13:56:12;;;;;;;;;;;9.30;99.90;;;;;;5086581;28;20442;-63
2023/02/21 13:58:39;;;;;;;;;;;9.40;99.90;;;;;;5081368;28;19928;-63
2023/02/21 14:01:18;;;;;;;;;;;9.50;99.90;;;;;;5085250;28;19928;-62
2023/02/21 14:03:44;;;;;;;;;;;9.40;99.90;;;;;;5085038;28;19924;-61
2023/02/21 14:06:23;;;;;;;;;;;9.20;99.90;;;;;;5082884;28;20035;-62
2023/02/21 14:08:55;;;;;;;;;;;9.30;99.90;;;;;;5084653;28;19924;-63
2023/02/21 14:11:23;;;;;;;;;;;9.40;99.90;;;;;;5083931;28;19924;-64
2023/02/21 14:13:50;;;;;;;;;;;9.50;99.90;;;;;;5072003;28;19963;-63
2023/02/21 14:16:19;;;;;;;;;;;9.50;99.90;;;;;;5072423;28;19928;-63
2023/02/21 14:18:48;;;;;;;;;;;9.50;99.90;;;;;;5085156;28;19924;-64
2023/02/21 14:21:20;;;;;;;;;;;9.50;99.90;;;;;;5084414;28;19935;-63
2023/02/21 14:23:49;;;;;;;;;;;9.40;99.90;;;;;;5079723;28;20034;-63
2023/02/21 14:26:40;;;;;;;;;;;9.50;99.90;;;;;;5083067;28;19928;-65
2023/02/21 14:29:12;;;;;;;;;;;9.60;99.90;;;;;;5067887;28;19924;-66
2023/02/21 14:31:49;;;;;;;;;;;9.50;99.90;;;;;;5082605;28;19925;-65
2023/02/21 14:34:19;;;;;;;;;;;9.60;99.90;;;;;;5081297;28;19925;-64
2023/02/21 14:36:49;;;;;;;;;;;9.50;99.90;;;;;;5083743;28;19924;-63
2023/02/21 14:39:16;;;;;;;;;;;9.60;99.90;;;;;;5089132;28;19928;-65
2023/02/21 14:41:50;;;;;;;;;;;9.40;99.90;;;;;;5088401;28;20007;-63
2023/02/21 14:44:23;;;;;;;;;;;9.50;99.90;;;;;;5084339;28;20375;-63
2023/02/21 14:47:04;;;;;;;;;;;9.40;99.90;;;;;;5083450;28;19924;-64
2023/02/21 14:49:52;;;;;;;;;;;9.50;99.90;;;;;;5082628;28;19978;-63
2023/02/21 14:52:36;;;;;;;;;;;9.50;99.90;;;;;;5078113;28;19932;-64
2023/02/21 14:55:26;;;;;;;;;;;9.60;99.90;;;;;;5072697;28;19924;-64
2023/02/21 14:58:14;;;;;;;;;;;9.60;99.90;;;;;;5081907;28;20400;-65
2023/02/21 15:00:47;;;;;;;;;;;9.60;99.90;;;;;;5085643;28;19932;-65
2023/02/21 15:03:17;;;;;;;;;;;9.60;99.90;;;;;;5087619;28;19924;-64
2023/02/21 15:05:47;;;;;;;;;;;9.60;99.90;;;;;;5082083;28;19924;-64
2023/02/21 15:08:15;;;;;;;;;;;9.60;99.90;;;;;;5083851;28;19978;-63
2023/02/21 15:10:44;;;;;;;;;;;9.60;99.90;;;;;;5085418;28;20541;-64
2023/02/21 15:13:21;;;;;;;;;;;9.60;99.90;;;;;;5081762;28;19986;-63
2023/02/21 15:15:48;;;;;;;;;;;9.60;99.90;;;;;;5087260;28;20333;-63
2023/02/21 15:18:24;;;;;;;;;;;9.60;99.90;;;;;;5085492;28;19924;-63
2023/02/21 15:21:01;;;;;;;;;;;9.60;99.90;;;;;;5087316;28;19931;-64
2023/02/21 15:23:29;;;;;;;;;;;9.50;99.90;;;;;;5088310;28;19946;-63
2023/02/21 15:25:57;;;;;;;;;;;9.40;99.90;;;;;;5085816;28;20086;-62
2023/02/21 15:28:25;;;;;;;;;;;9.40;99.90;;;;;;5083006;28;19924;-63
2023/02/21 15:30:56;;;;;;;;;;;9.40;99.90;;;;;;5071982;28;19931;-62
2023/02/21 15:33:25;;;;;;;;;;;9.30;99.90;;;;;;5071407;28;19980;-62
2023/02/21 15:35:53;;;;;;;;;;;9.30;99.90;;;;;;5076174;28;19924;-63
2023/02/21 15:38:22;;;;;;;;;;;9.20;99.90;;;;;;5081117;28;19925;-63
2023/02/21 15:40:49;;;;;;;;;;;9.00;99.90;;;;;;5082698;28;19928;-63
2023/02/21 15:43:24;;;;;;;;;;;9.00;99.90;;;;;;5081734;28;19928;-63
2023/02/21 15:45:52;;;;;;;;;;;8.90;99.90;;;;;;5069388;28;19928;-63
2023/02/21 15:48:19;;;;;;;;;;;8.90;99.90;;;;;;5081089;28;19959;-63
2023/02/21 15:50:47;;;;;;;;;;;8.80;99.90;;;;;;5090358;28;19928;-63
2023/02/21 15:53:15;;;;;;;;;;;8.80;99.90;;;;;;5085975;28;19924;-64
2023/02/21 15:55:43;;;;;;;;;;;8.90;99.90;;;;;;5084102;28;19973;-65
2023/02/21 15:58:15;;;;;;;;;;;9.00;99.90;;;;;;5085694;28;19982;-63
2023/02/21 16:00:43;;;;;;;;;;;9.00;99.90;;;;;;5091088;28;19933;-64
2023/02/21 16:03:26;;;;;;;;;;;9.10;99.90;;;;;;5086786;28;19974;-61
2023/02/21 16:05:54;;;;;;;;;;;8.90;99.90;;;;;;5085298;28;19925;-64
2023/02/21 16:08:21;;;;;;;;;;;9.00;99.90;;;;;;5084170;28;19970;-64
2023/02/21 16:10:47;;;;;;;;;;;9.10;99.90;;;;;;5086105;28;19924;-64
2023/02/21 16:13:14;;;;;;;;;;;9.10;99.90;;;;;;5086275;28;19928;-64
2023/02/21 16:15:42;;;;;;;;;;;9.30;99.90;;;;;;5083630;28;20441;-64
2023/02/21 16:18:15;;;;;;;;;;;9.20;99.90;;;;;;5085298;28;19933;-63
2023/02/21 16:20:42;;;;;;;;;;;9.10;99.90;;;;;;5086519;28;19961;-62
2023/02/21 16:23:14;;;;;;;;;;;9.00;99.90;;;;;;5085545;28;20452;-62
2023/02/21 16:25:54;;;;;;;;;;;9.00;99.90;;;;;;5083252;28;19925;-63
2023/02/21 16:28:21;;;;;;;;;;;9.20;99.90;;;;;;5083707;28;19928;-64
2023/02/21 16:30:48;;;;;;;;;;;9.30;99.90;;;;;;5085096;28;19928;-63
2023/02/21 16:33:15;;;;;;;;;;;9.30;99.90;;;;;;5086032;28;19933;-64
2023/02/21 16:35:42;;;;;;;;;;;9.40;99.90;;;;;;5083292;28;19970;-64
2023/02/21 16:38:12;;;;;;;;;;;9.40;99.90;;;;;;5084043;28;19924;-63
2023/02/21 16:40:39;;;;;;;;;;;9.50;99.90;;;;;;5083317;28;19939;-63
2023/02/21 16:43:06;;;;;;;;;;;9.40;99.90;;;;;;5084203;28;20391;-64
2023/02/21 16:45:32;;;;;;;;;;;9.50;99.90;;;;;;5085607;28;19924;-64
2023/02/21 16:48:00;;;;;;;;;;;9.40;99.90;;;;;;5085143;28;19928;-64
2023/02/21 16:50:29;;;;;;;;;;;9.40;99.90;;;;;;5088441;28;19979;-66
2023/02/21 16:52:56;;;;;;;;;;;9.30;99.90;;;;;;5073805;28;19925;-62
2023/02/21 16:55:22;;;;;;;;;;;9.30;99.90;;;;;;5073976;28;20413;-67
2023/02/21 16:57:50;;;;;;;;;;;9.30;99.90;;;;;;5074362;28;19932;-66
2023/02/21 17:00:19;;;;;;;;;;;9.30;99.90;;;;;;5072442;28;19977;-66